SAN weather

San Diego International Airport
San Diego, California, United States

Public forecast

Using degrees Fahrenheit for public forecast. Weather courtesy of forecast.io.

METAR (pilot weather report)

Retrieved 2017/03/29 08:51 UTC (15 minutes ago):

KSAN 290851Z 00000KT 10SM CLR 15/05 A3001

TAF (pilot weather forecast)

Retrieved 2017/03/29 06:24 UTC (3 hours ago):

TAF KSAN 290520Z 2906/3012 VRB04KT P6SM FEW250 FM291900 29009KT P6SM SKC FM300200 VRB04KT P6SM SKC